Terminal Aerodrome Forecast
Issued by NWS

Home | Current Version | Previous Version | Text Only | Print | Product List | Glossary On
Versions: 1 2 3 4 5 6 7 8 9 10 11 12 13 14 15 16 17 18 19 20 21 22 23 24 25 26 27 28 29 30 31 32
000
FTUS45 KGJT 111140
TAFVEL
TAF
KVEL 111140Z 1112/1212 VRB03KT P6SM FEW100 SCT150
     FM112000 VRB04KT P6SM VCTS SCT080CB SCT110 BKN200
      TEMPO 1121/1201 VRB20G30KT -TSRA BKN080CB
     FM120300 34006KT P6SM SCT090 BKN110
     FM120600 32005KT P6SM SCT110 BKN200=

USA.gov is the U.S. government's official web portal to all federal, state and local government web resources and services.